createdAt,value
2018-10-09T00:02:22.458Z,94.18
2018-10-09T00:04:51.087Z,94.79
2018-10-09T00:07:19.590Z,95.03
2018-10-09T00:09:48.598Z,94.65
2018-10-09T00:12:17.106Z,94.59
2018-10-09T00:14:45.884Z,94.68
2018-10-09T00:17:14.435Z,94.81
2018-10-09T00:19:43.143Z,94.38
2018-10-09T00:22:11.842Z,94.28
2018-10-09T00:24:40.362Z,94.37
2018-10-09T00:27:09.016Z,94.23
2018-10-09T00:29:37.567Z,94.43
2018-10-09T00:32:07.487Z,94.46
2018-10-09T00:34:35.986Z,94.44
2018-10-09T00:37:04.842Z,94.47
2018-10-09T00:39:33.459Z,94.00
2018-10-09T00:42:02.080Z,94.31
2018-10-09T00:44:30.582Z,94.02
2018-10-09T00:46:59.253Z,94.25
2018-10-09T00:49:28.035Z,94.07
2018-10-09T00:51:56.558Z,94.12
2018-10-09T00:54:25.425Z,94.02
2018-10-09T00:56:54.014Z,93.80
2018-10-09T00:59:22.849Z,93.87
2018-10-09T01:01:51.450Z,93.49
2018-10-09T01:04:19.960Z,93.29
2018-10-09T01:06:48.574Z,93.96
2018-10-09T01:09:17.134Z,93.52
2018-10-09T01:11:45.993Z,93.71
2018-10-09T01:14:14.481Z,94.05
2018-10-09T01:16:43.331Z,94.02
2018-10-09T01:19:12.015Z,93.51
2018-10-09T01:21:40.624Z,94.41
2018-10-09T01:24:09.467Z,93.87
2018-10-09T01:26:37.982Z,94.00
2018-10-09T01:29:06.856Z,94.17
2018-10-09T01:31:35.442Z,94.19
2018-10-09T01:34:04.252Z,94.43
2018-10-09T01:36:32.749Z,94.13
2018-10-09T01:39:01.374Z,94.13
2018-10-09T01:41:30.430Z,94.44
2018-10-09T01:43:59.010Z,94.68
2018-10-09T01:46:28.583Z,94.42
2018-10-09T01:48:57.214Z,94.48
2018-10-09T01:51:25.946Z,94.08
2018-10-09T01:53:54.546Z,94.11
2018-10-09T01:56:23.564Z,94.29
2018-10-09T01:58:52.054Z,94.19
2018-10-09T02:01:20.869Z,94.61
2018-10-09T02:03:49.354Z,94.67
2018-10-09T02:06:17.979Z,94.17
2018-10-09T02:08:46.506Z,93.94
2018-10-09T02:11:15.020Z,94.30
2018-10-09T02:13:43.636Z,94.31
2018-10-09T02:16:12.217Z,93.99
2018-10-09T02:18:41.156Z,94.44
2018-10-09T02:21:10.314Z,94.02
2018-10-09T02:23:38.987Z,93.99
2018-10-09T02:26:07.604Z,93.79
2018-10-09T02:28:36.120Z,94.08
2018-10-09T02:31:04.754Z,93.98
2018-10-09T02:33:33.317Z,93.92
2018-10-09T02:36:02.058Z,93.89
2018-10-09T02:38:30.608Z,94.03
2018-10-09T02:40:59.313Z,94.14
2018-10-09T02:43:27.888Z,94.62
2018-10-09T02:45:56.431Z,94.40
2018-10-09T02:48:25.040Z,95.04
2018-10-09T02:50:53.676Z,95.26
2018-10-09T02:53:23.302Z,94.93
2018-10-09T02:55:51.911Z,94.61
2018-10-09T02:58:20.552Z,94.83
2018-10-09T03:00:49.201Z,94.69
2018-10-09T03:03:17.751Z,94.55
2018-10-09T03:05:46.270Z,94.62
2018-10-09T03:08:14.859Z,94.49
2018-10-09T03:10:43.671Z,94.77
2018-10-09T03:13:12.216Z,94.58
2018-10-09T03:15:41.175Z,94.68
2018-10-09T03:18:09.783Z,94.49
2018-10-09T03:20:38.417Z,94.41
2018-10-09T03:23:07.140Z,94.46
2018-10-09T03:25:35.898Z,94.54
2018-10-09T03:28:04.714Z,94.49
2018-10-09T03:30:33.326Z,94.24
2018-10-09T03:33:02.094Z,94.18
2018-10-09T03:35:30.727Z,94.33
2018-10-09T03:37:59.492Z,94.32
2018-10-09T03:40:28.099Z,94.50
2018-10-09T03:42:56.721Z,94.04
2018-10-09T03:45:25.289Z,94.13
2018-10-09T03:47:53.826Z,94.23
2018-10-09T03:50:22.570Z,94.36
2018-10-09T03:52:51.182Z,94.36
2018-10-09T03:55:19.975Z,94.49
2018-10-09T03:57:48.540Z,94.02
2018-10-09T04:00:17.344Z,94.10
2018-10-09T04:02:45.979Z,94.12
2018-10-09T04:05:14.582Z,94.27
2018-10-09T04:07:43.228Z,93.99
2018-10-09T04:10:11.758Z,94.03
2018-10-09T04:12:40.548Z,94.07
2018-10-09T04:15:09.179Z,94.11
2018-10-09T04:17:38.007Z,94.14
2018-10-09T04:20:06.654Z,94.17
2018-10-09T04:22:35.283Z,94.25
2018-10-09T04:25:03.904Z,94.32
2018-10-09T04:27:32.415Z,94.26
2018-10-09T04:30:01.243Z,94.42
2018-10-09T04:32:29.754Z,94.57
2018-10-09T04:34:58.470Z,94.38
2018-10-09T04:37:27.038Z,94.47
2018-10-09T04:39:55.654Z,94.01
2018-10-09T04:42:24.138Z,94.10
2018-10-09T04:44:52.674Z,94.34
2018-10-09T04:47:21.486Z,94.15
2018-10-09T04:49:49.958Z,93.91
2018-10-09T04:52:18.738Z,94.20
2018-10-09T04:54:47.594Z,94.12
2018-10-09T04:57:16.283Z,94.39
2018-10-09T04:59:44.878Z,94.14
2018-10-09T05:02:13.428Z,94.32
2018-10-09T05:04:42.114Z,94.09
2018-10-09T05:07:11.438Z,94.31
2018-10-09T05:09:40.260Z,94.01
2018-10-09T05:12:08.882Z,94.05
2018-10-09T05:14:37.744Z,93.71
2018-10-09T05:17:06.360Z,94.07
2018-10-09T05:19:35.187Z,94.22
2018-10-09T05:22:03.853Z,94.21
2018-10-09T05:24:32.710Z,93.91
2018-10-09T05:27:01.238Z,94.15
2018-10-09T05:29:29.854Z,93.92
2018-10-09T05:31:58.954Z,93.99
2018-10-09T05:34:27.491Z,93.62
2018-10-09T05:36:56.458Z,93.61
2018-10-09T05:39:25.151Z,93.30
2018-10-09T05:41:53.785Z,93.26
2018-10-09T05:44:22.375Z,93.60
2018-10-09T05:46:50.872Z,93.37
2018-10-09T05:49:19.739Z,93.70
2018-10-09T05:51:48.246Z,93.53
2018-10-09T05:54:17.059Z,94.18
2018-10-09T05:56:45.584Z,93.79
2018-10-09T05:59:14.318Z,93.50
2018-10-09T06:01:43.127Z,93.68
2018-10-09T06:04:12.057Z,94.00
2018-10-09T06:06:40.670Z,93.76
2018-10-09T06:09:10.570Z,94.14
2018-10-09T06:11:39.497Z,94.06
2018-10-09T06:14:08.434Z,93.63
2018-10-09T06:16:37.099Z,93.69
2018-10-09T06:19:06.823Z,94.29
2018-10-09T06:21:35.662Z,93.67
2018-10-09T06:24:04.292Z,93.55
2018-10-09T06:26:33.059Z,93.97
2018-10-09T06:29:01.539Z,93.36
2018-10-09T06:31:31.758Z,93.18
2018-10-09T06:34:00.435Z,93.55
2018-10-09T06:36:29.026Z,93.33
2018-10-09T06:38:57.826Z,93.10
2018-10-09T06:41:26.331Z,92.78
2018-10-09T06:43:55.211Z,93.03
2018-10-09T06:46:23.695Z,92.41
2018-10-09T06:48:52.430Z,92.68
2018-10-09T06:51:20.950Z,92.14
2018-10-09T06:53:49.593Z,92.06
2018-10-09T06:56:18.078Z,92.58
2018-10-09T06:58:48.822Z,92.54
2018-10-09T07:01:17.442Z,92.33
2018-10-09T07:03:45.975Z,92.14
2018-10-09T07:06:14.704Z,92.89
2018-10-09T07:08:43.340Z,92.39
2018-10-09T07:11:12.280Z,92.86
2018-10-09T07:13:40.812Z,92.49
2018-10-09T07:16:09.565Z,92.70
2018-10-09T07:18:38.187Z,92.35
2018-10-09T07:21:06.958Z,92.39
2018-10-09T07:23:35.610Z,92.88
2018-10-09T07:26:04.294Z,93.06
2018-10-09T07:28:33.106Z,92.43
2018-10-09T07:31:01.585Z,92.33
2018-10-09T07:33:30.351Z,92.21
2018-10-09T07:35:58.940Z,92.18
2018-10-09T07:38:27.560Z,92.54
2018-10-09T07:40:57.051Z,91.93
2018-10-09T07:43:26.420Z,92.11
2018-10-09T07:45:54.971Z,92.37
2018-10-09T07:48:23.542Z,92.27
2018-10-09T07:50:52.377Z,91.68
2018-10-09T07:53:20.860Z,92.35
2018-10-09T07:55:49.686Z,91.98
2018-10-09T07:58:18.303Z,92.11
2018-10-09T08:00:46.959Z,91.74
2018-10-09T08:03:15.522Z,92.05
2018-10-09T08:05:44.023Z,91.63
2018-10-09T08:08:12.718Z,91.96
2018-10-09T08:10:41.313Z,91.96
2018-10-09T08:13:10.395Z,91.38
2018-10-09T08:15:38.972Z,92.24
2018-10-09T08:18:09.159Z,91.58
2018-10-09T08:20:38.849Z,92.20
2018-10-09T08:23:07.628Z,91.72
2018-10-09T08:25:36.353Z,91.62
2018-10-09T08:28:05.364Z,91.32
2018-10-09T08:30:34.313Z,91.21
2018-10-09T08:33:03.626Z,91.04
2018-10-09T08:35:32.138Z,91.23
2018-10-09T08:38:00.745Z,91.59
2018-10-09T08:40:29.531Z,91.12
2018-10-09T08:43:00.746Z,91.43
2018-10-09T08:45:29.554Z,90.93
2018-10-09T08:47:58.094Z,90.54
2018-10-09T08:50:26.990Z,90.19
2018-10-09T08:52:55.520Z,90.80
2018-10-09T08:55:24.461Z,90.73
2018-10-09T08:57:53.021Z,90.19
2018-10-09T09:00:22.331Z,90.83
2018-10-09T09:02:50.972Z,90.32
2018-10-09T09:05:19.785Z,89.79
2018-10-09T09:07:48.402Z,90.15
2018-10-09T09:10:17.071Z,90.16
2018-10-09T09:12:45.686Z,89.96
2018-10-09T09:15:14.282Z,90.30
2018-10-09T09:17:43.251Z,90.04
2018-10-09T09:20:11.882Z,90.08
2018-10-09T09:22:40.897Z,90.95
2018-10-09T09:25:10.457Z,90.36
2018-10-09T09:27:39.355Z,90.85
2018-10-09T09:30:08.488Z,90.73
2018-10-09T09:32:37.274Z,90.32
2018-10-09T09:35:05.983Z,90.49
2018-10-09T09:37:34.712Z,89.79
2018-10-09T09:40:03.448Z,90.45
2018-10-09T09:42:32.053Z,90.69
2018-10-09T09:45:00.851Z,90.26
2018-10-09T09:47:29.420Z,90.63
2018-10-09T09:49:58.152Z,90.21
2018-10-09T09:52:26.728Z,90.13
2018-10-09T09:54:55.299Z,90.43
2018-10-09T09:57:23.862Z,90.71
2018-10-09T09:59:52.436Z,90.14
2018-10-09T10:02:20.992Z,90.72
2018-10-09T10:04:49.488Z,90.19
2018-10-09T10:07:18.212Z,90.52
2018-10-09T10:09:46.812Z,90.49
2018-10-09T10:12:15.435Z,90.44
2018-10-09T10:14:43.948Z,89.99
2018-10-09T10:17:12.589Z,90.03
2018-10-09T10:19:41.634Z,90.27
2018-10-09T10:22:10.119Z,89.77
2018-10-09T10:24:39.847Z,90.38
2018-10-09T10:27:08.553Z,90.16
2018-10-09T10:29:37.403Z,89.69
2018-10-09T10:32:06.086Z,89.75
2018-10-09T10:34:35.107Z,89.31
2018-10-09T10:37:03.711Z,89.53
2018-10-09T10:39:32.340Z,88.64
2018-10-09T10:42:00.867Z,88.90
2018-10-09T10:44:29.353Z,89.12
2018-10-09T10:46:58.054Z,88.87
2018-10-09T10:49:26.748Z,88.89
2018-10-09T10:51:55.995Z,89.35
2018-10-09T10:54:24.591Z,89.17
2018-10-09T10:56:53.364Z,88.92
2018-10-09T10:59:22.087Z,88.61
2018-10-09T11:01:50.761Z,88.34
2018-10-09T11:04:19.236Z,88.34
2018-10-09T11:06:47.759Z,88.01
2018-10-09T11:09:16.549Z,88.36
2018-10-09T11:11:45.678Z,87.71
2018-10-09T11:14:14.405Z,87.91
2018-10-09T11:16:43.038Z,88.28
2018-10-09T11:19:11.691Z,88.44
2018-10-09T11:21:40.513Z,88.30
2018-10-09T11:24:09.135Z,88.27
2018-10-09T11:26:37.682Z,88.23
2018-10-09T11:29:06.349Z,88.82
2018-10-09T11:31:35.203Z,87.51
2018-10-09T11:34:11.287Z,88.12
2018-10-09T11:36:39.968Z,87.91
2018-10-09T11:39:09.190Z,87.73
2018-10-09T11:41:37.686Z,88.47
2018-10-09T11:44:06.637Z,88.55
2018-10-09T11:46:36.145Z,87.99
2018-10-09T11:49:04.790Z,88.50
2018-10-09T11:51:33.382Z,87.91
2018-10-09T11:54:01.896Z,88.79
2018-10-09T11:56:30.572Z,88.76
2018-10-09T11:58:59.136Z,89.26
2018-10-09T12:01:28.379Z,89.01
2018-10-09T12:03:56.938Z,89.18
2018-10-09T12:06:25.639Z,88.93
2018-10-09T12:08:54.162Z,89.18
2018-10-09T12:11:22.835Z,88.56
2018-10-09T12:13:51.469Z,88.90
2018-10-09T12:16:20.058Z,89.45
2018-10-09T12:18:48.940Z,88.92
2018-10-09T12:21:17.495Z,89.18
2018-10-09T12:23:46.257Z,89.49
2018-10-09T12:26:14.813Z,89.67
2018-10-09T12:28:43.400Z,89.58
2018-10-09T12:31:11.878Z,89.14
2018-10-09T12:33:40.401Z,89.42
2018-10-09T12:36:09.263Z,88.74
2018-10-09T12:38:37.837Z,88.81
2018-10-09T12:41:06.817Z,88.66
2018-10-09T12:43:35.466Z,88.49
2018-10-09T12:46:04.186Z,88.06
2018-10-09T12:48:32.751Z,88.62
2018-10-09T12:51:01.560Z,88.58
2018-10-09T12:53:30.214Z,88.05
2018-10-09T12:55:58.730Z,88.34
2018-10-09T12:58:27.513Z,87.98
2018-10-09T13:00:56.081Z,88.73
2018-10-09T13:03:24.821Z,88.24
2018-10-09T13:05:53.370Z,87.71
2018-10-09T13:08:21.962Z,87.60
2018-10-09T13:10:50.492Z,87.18
2018-10-09T13:13:19.107Z,87.54
2018-10-09T13:15:47.669Z,86.41
2018-10-09T13:18:16.166Z,86.63
2018-10-09T13:20:45.053Z,86.17
2018-10-09T13:23:13.617Z,86.32
2018-10-09T13:25:42.241Z,86.55
2018-10-09T13:28:10.838Z,85.70
2018-10-09T13:30:39.428Z,85.72
2018-10-09T13:33:08.148Z,85.32
2018-10-09T13:35:36.837Z,86.17
2018-10-09T13:38:05.572Z,85.81
2018-10-09T13:40:34.022Z,86.71
2018-10-09T13:43:02.607Z,86.64
2018-10-09T13:45:32.455Z,86.80
2018-10-09T13:48:02.340Z,86.58
2018-10-09T13:50:31.164Z,86.68
2018-10-09T13:52:59.737Z,86.93
2018-10-09T13:55:28.464Z,87.12
2018-10-09T13:57:57.087Z,87.39
2018-10-09T14:00:25.973Z,87.16
2018-10-09T14:02:55.054Z,87.57
2018-10-09T14:05:24.314Z,86.93
2018-10-09T14:07:52.932Z,87.32
2018-10-09T14:10:21.782Z,86.11
2018-10-09T14:12:50.455Z,86.26
2018-10-09T14:15:19.047Z,86.14
2018-10-09T14:17:47.984Z,85.07
2018-10-09T14:20:16.618Z,85.43
2018-10-09T14:22:45.688Z,85.49
2018-10-09T14:25:14.229Z,84.86
2018-10-09T14:27:43.277Z,85.19
2018-10-09T14:30:12.021Z,85.30
2018-10-09T14:32:40.915Z,84.91
2018-10-09T14:35:09.628Z,84.69
2018-10-09T14:37:38.345Z,84.86
2018-10-09T14:40:07.058Z,84.46
2018-10-09T14:42:35.595Z,84.58
2018-10-09T14:45:04.467Z,83.50
2018-10-09T14:47:32.993Z,83.74
2018-10-09T14:50:01.722Z,84.13
2018-10-09T14:52:30.274Z,83.33
2018-10-09T14:54:58.973Z,84.26
2018-10-09T14:57:27.615Z,83.70
2018-10-09T14:59:56.274Z,84.02
2018-10-09T15:02:26.518Z,83.74
2018-10-09T15:04:55.666Z,83.75
2018-10-09T15:07:24.352Z,84.51
2018-10-09T15:09:53.034Z,85.09
2018-10-09T15:12:22.583Z,84.35
2018-10-09T15:14:51.491Z,84.85
2018-10-09T15:17:22.601Z,85.11
2018-10-09T15:19:51.776Z,85.07
2018-10-09T15:22:20.574Z,84.80
2018-10-09T15:24:49.212Z,85.16
2018-10-09T15:27:18.519Z,85.79
2018-10-09T15:29:47.313Z,85.17
2018-10-09T15:32:17.450Z,84.43
2018-10-09T15:34:46.114Z,83.64
2018-10-09T15:37:15.122Z,83.90
2018-10-09T15:39:43.816Z,83.53
2018-10-09T15:42:13.551Z,84.00
2018-10-09T15:44:42.326Z,84.06
2018-10-09T15:47:11.020Z,84.70
2018-10-09T15:49:41.446Z,84.65
2018-10-09T15:52:10.501Z,85.46
2018-10-09T15:54:39.708Z,85.66
2018-10-09T15:57:08.781Z,86.15
2018-10-09T15:59:37.447Z,85.90
2018-10-09T16:02:06.712Z,85.92
2018-10-09T16:04:35.551Z,85.49
2018-10-09T16:07:04.129Z,85.38
2018-10-09T16:09:33.475Z,85.14
2018-10-09T16:12:02.209Z,85.86
2018-10-09T16:14:31.479Z,85.77
2018-10-09T16:17:00.158Z,85.76
2018-10-09T16:19:28.831Z,85.78
2018-10-09T16:21:57.394Z,85.76
2018-10-09T16:24:26.115Z,85.66
2018-10-09T16:26:55.109Z,85.87
2018-10-09T16:29:28.464Z,85.23
2018-10-09T16:31:57.159Z,85.21
2018-10-09T16:34:26.196Z,84.51
2018-10-09T16:36:55.032Z,84.91
2018-10-09T16:39:23.979Z,84.80
2018-10-09T16:41:52.759Z,85.29
2018-10-09T16:44:21.336Z,85.60
2018-10-09T16:46:50.402Z,85.72
2018-10-09T16:49:18.894Z,85.40
2018-10-09T16:51:48.046Z,84.48
2018-10-09T16:54:17.070Z,84.31
2018-10-09T16:56:46.072Z,84.11
2018-10-09T16:59:14.634Z,84.57
2018-10-09T17:01:43.283Z,83.86
2018-10-09T17:04:11.813Z,83.47
2018-10-09T17:06:40.548Z,83.48
2018-10-09T17:09:10.144Z,84.02
2018-10-09T17:11:39.167Z,84.33
2018-10-09T17:14:08.227Z,84.38
2018-10-09T17:16:37.292Z,84.47
2018-10-09T17:19:05.953Z,84.52
2018-10-09T17:21:34.579Z,84.16
2018-10-09T17:24:04.459Z,84.86
2018-10-09T17:26:33.697Z,84.21
2018-10-09T17:29:03.385Z,84.60
2018-10-09T17:31:32.902Z,84.47
2018-10-09T17:34:01.676Z,85.02
2018-10-09T17:36:30.454Z,85.41
2018-10-09T17:38:59.195Z,85.62
2018-10-09T17:41:27.818Z,86.14
2018-10-09T17:43:56.439Z,85.67
2018-10-09T17:46:26.405Z,86.30
2018-10-09T17:48:55.038Z,86.15
2018-10-09T17:51:24.294Z,86.07
2018-10-09T17:53:53.489Z,86.70
2018-10-09T17:56:22.584Z,86.62
2018-10-09T17:58:51.162Z,86.85
2018-10-09T18:01:20.052Z,86.71
2018-10-09T18:03:49.185Z,86.51
2018-10-09T18:06:17.796Z,86.68
2018-10-09T18:08:46.529Z,86.58
2018-10-09T18:11:15.170Z,86.21
2018-10-09T18:13:43.992Z,86.14
2018-10-09T18:16:12.630Z,85.94
2018-10-09T18:18:41.670Z,85.12
2018-10-09T18:21:11.631Z,85.58
2018-10-09T18:23:40.831Z,85.04
2018-10-09T18:26:09.473Z,84.31
2018-10-09T18:28:38.932Z,84.41
2018-10-09T18:31:07.534Z,84.31
2018-10-09T18:33:36.572Z,84.45
2018-10-09T18:36:05.156Z,84.40
2018-10-09T18:38:33.970Z,83.97
2018-10-09T18:41:03.199Z,84.19
2018-10-09T18:43:32.139Z,84.69
2018-10-09T18:46:00.884Z,84.97
2018-10-09T18:48:29.470Z,84.62
2018-10-09T18:50:58.701Z,84.48
2018-10-09T18:53:27.472Z,84.19
2018-10-09T18:55:56.627Z,84.55
2018-10-09T18:58:25.289Z,84.86
2018-10-09T19:00:54.444Z,85.41
2018-10-09T19:03:23.127Z,85.52
2018-10-09T19:05:51.954Z,86.15
2018-10-09T19:08:20.642Z,86.19
2018-10-09T19:10:49.322Z,86.31
2018-10-09T19:13:18.173Z,86.37
2018-10-09T19:15:46.822Z,86.32
2018-10-09T19:18:15.745Z,86.76
2018-10-09T19:20:44.272Z,86.29
2018-10-09T19:23:13.428Z,86.61
2018-10-09T19:25:42.004Z,86.32
2018-10-09T19:28:11.252Z,86.72
2018-10-09T19:30:39.866Z,86.34
2018-10-09T19:33:08.454Z,86.63
2018-10-09T19:35:37.219Z,86.56
2018-10-09T19:38:05.871Z,86.57
2018-10-09T19:40:34.813Z,86.36
2018-10-09T19:43:03.420Z,86.87
2018-10-09T19:45:32.908Z,86.66
2018-10-09T19:48:01.950Z,86.58
2018-10-09T19:50:30.736Z,86.61
2018-10-09T19:52:59.300Z,86.63
2018-10-09T19:55:27.904Z,87.08
2018-10-09T19:57:56.507Z,87.25
2018-10-09T20:00:25.141Z,87.68
2018-10-09T20:02:54.747Z,87.77
2018-10-09T20:05:23.481Z,87.94
2018-10-09T20:07:52.869Z,87.71
2018-10-09T20:10:21.441Z,87.95
2018-10-09T20:12:50.323Z,88.14
2018-10-09T20:15:18.952Z,87.56
2018-10-09T20:17:47.807Z,88.01
2018-10-09T20:20:16.374Z,88.34
2018-10-09T20:22:44.925Z,88.55
2018-10-09T20:25:13.857Z,88.38
2018-10-09T20:27:42.422Z,88.23
2018-10-09T20:30:11.312Z,88.51
2018-10-09T20:32:39.973Z,88.46
2018-10-09T20:35:08.856Z,88.70
2018-10-09T20:37:37.418Z,88.99
2018-10-09T20:40:06.074Z,88.66
2018-10-09T20:42:34.823Z,87.97
2018-10-09T20:45:03.510Z,87.65
2018-10-09T20:47:38.029Z,86.88
2018-10-09T20:50:07.021Z,87.08
2018-10-09T20:52:35.587Z,86.71
2018-10-09T20:55:04.359Z,86.69
2018-10-09T20:57:32.890Z,86.43
2018-10-09T21:00:01.450Z,86.23
2018-10-09T21:02:30.149Z,86.51
2018-10-09T21:04:58.716Z,86.37
2018-10-09T21:07:27.442Z,86.29
2018-10-09T21:09:56.222Z,86.02
2018-10-09T21:12:24.891Z,86.38
2018-10-09T21:14:53.406Z,86.56
2018-10-09T21:17:22.748Z,86.00
2018-10-09T21:19:51.261Z,85.81
2018-10-09T21:22:19.829Z,85.95
2018-10-09T21:24:48.834Z,86.45
2018-10-09T21:27:17.413Z,86.39
2018-10-09T21:29:46.476Z,86.25
2018-10-09T21:32:15.090Z,86.30
2018-10-09T21:34:43.936Z,86.91
2018-10-09T21:37:12.538Z,87.35
2018-10-09T21:39:41.287Z,87.39
2018-10-09T21:42:09.920Z,87.97
2018-10-09T21:44:38.470Z,87.44
2018-10-09T21:47:08.178Z,87.79
2018-10-09T21:49:37.295Z,87.51
2018-10-09T21:52:06.315Z,87.76
2018-10-09T21:54:34.932Z,88.00
2018-10-09T21:57:03.670Z,87.43
2018-10-09T21:59:32.282Z,87.43
2018-10-09T22:02:01.045Z,87.65
2018-10-09T22:04:29.710Z,87.02
2018-10-09T22:06:58.300Z,86.92
2018-10-09T22:09:27.016Z,87.20
2018-10-09T22:11:55.571Z,86.81
2018-10-09T22:14:24.747Z,87.18
2018-10-09T22:16:53.460Z,87.27
2018-10-09T22:19:22.264Z,87.28
2018-10-09T22:21:50.836Z,87.07
2018-10-09T22:24:19.545Z,87.34
2018-10-09T22:26:48.163Z,86.77
2018-10-09T22:29:16.715Z,87.13
2018-10-09T22:31:45.496Z,86.57
2018-10-09T22:34:14.030Z,86.84
2018-10-09T22:36:42.860Z,86.83
2018-10-09T22:39:11.574Z,86.74
2018-10-09T22:41:40.415Z,86.44
2018-10-09T22:44:09.066Z,86.63
2018-10-09T22:46:37.727Z,86.04
2018-10-09T22:49:06.332Z,86.02
2018-10-09T22:51:34.911Z,86.16
2018-10-09T22:54:03.777Z,86.20
2018-10-09T22:56:32.319Z,85.87
2018-10-09T22:59:01.333Z,85.94
2018-10-09T23:01:30.020Z,85.87
2018-10-09T23:03:58.886Z,86.47
2018-10-09T23:06:27.527Z,85.82
2018-10-09T23:08:56.127Z,86.53
2018-10-09T23:11:24.826Z,86.55
2018-10-09T23:13:53.378Z,86.52
2018-10-09T23:16:22.152Z,86.36
2018-10-09T23:18:50.756Z,86.44
2018-10-09T23:21:19.422Z,86.84
2018-10-09T23:23:48.085Z,86.97
2018-10-09T23:26:16.699Z,86.60
2018-10-09T23:28:45.352Z,86.66
2018-10-09T23:31:14.037Z,86.73
2018-10-09T23:33:42.983Z,86.56
2018-10-09T23:36:11.571Z,86.77
2018-10-09T23:38:40.342Z,86.85
2018-10-09T23:41:08.989Z,87.45
2018-10-09T23:43:37.610Z,87.54
2018-10-09T23:46:06.206Z,86.47
2018-10-09T23:48:34.760Z,86.76
2018-10-09T23:51:03.570Z,86.90
2018-10-09T23:53:32.170Z,87.11
2018-10-09T23:56:01.042Z,86.62
2018-10-09T23:58:29.739Z,86.84
